Marinicki — 9HWU9 — position and weather

sailwx.info

Track history (hours):
 
Tides and Currents Weather Stations Pressure Air Temp Water Temp Dewpoint Dewpoint Depression Visibility Wind Speed Wind Dir Waves Ship Positions

Marinicki

Last reported at 2015-Feb-11 20:25 UTC. Time now 2015-Mar-06 09:05 UTC.
Position N 36°47' W 030°47'.
Warning: this ship's position is 22 days out of date.

Length 218 m; draft 8.9 m.

Type: Ship. MMSI: 249650000.

Date/timePositionNaut miles runAvg speedWind from/ knotsBaromVisibWave heightAir tempDewpointWater temp
2015-Feb-11 20:25N 36°47' W 030°47'1112.4
2015-Feb-11 19:30N 36°50' W 030°33'4111.9
2015-Feb-11 16:05N 36°58' W 029°43'611.5
2015-Feb-11 15:32N 36°59' W 029°35'1111.4
2015-Feb-11 14:33N 37°02' W 029°22'1111.4
2015-Feb-11 13:33N 37°09' W 029°10'1111.4
2015-Feb-11 12:33N 37°15' W 028°58'1211.6
2015-Feb-11 11:33N 37°22' W 028°46'1211.6
2015-Feb-11 10:33N 37°28' W 028°35'1211.8
2015-Feb-11 09:34N 37°35' W 028°22'1211.7
2015-Feb-11 08:33N 37°42' W 028°11'1211.7
2015-Feb-11 07:33N 37°49' W 027°58'1211.6
2015-Feb-11 06:33N 37°55' W 027°46'1211.6
2015-Feb-11 05:33N 38°02' W 027°34'1111.4
2015-Feb-11 04:33N 38°09' W 027°22'1211.8
2015-Feb-11 03:33N 38°15' W 027°10'1211.8
2015-Feb-11 02:33N 38°22' W 026°58'1211.7
2015-Feb-11 01:33N 38°29' W 026°46'1211.8
2015-Feb-11 00:33N 38°36' W 026°33'1211.8
2015-Feb-10 23:33N 38°43' W 026°21'1212.0
2015-Feb-10 22:33N 38°49' W 026°09'1211.9
2015-Feb-10 21:33N 38°56' W 025°56'  
2015-Feb-06 14:31N 50°15' W 001°24'4012.3
2015-Feb-06 11:15N 50°25' W 000°23'710.1
2015-Feb-06 10:33N 50°27' W 000°12'1110.2
2015-Feb-06 09:28N 50°30' E 000°04'1010.8
2015-Feb-06 08:33N 50°33' E 000°20'1212.1
2015-Feb-06 07:33N 50°37' E 000°37'1413.6
2015-Feb-06 06:33N 50°45' E 000°55'1413.8
2015-Feb-06 05:33N 50°53' E 001°13'1313.2
2015-Feb-06 04:33N 51°02' E 001°28'1111.3
2015-Feb-06 03:33N 51°10' E 001°40'1010.2
2015-Feb-06 02:33N 51°18' E 001°50'1110.7
2015-Feb-06 01:33N 51°27' E 001°58'1211.6
2015-Feb-06 00:33N 51°36' E 002°11'1312.6
2015-Feb-05 23:33N 51°46' E 002°24'6612.4
2015-Feb-05 18:14N 52°31' E 003°42'811.8
2015-Feb-05 17:33N 52°31' E 003°55'1211.7
2015-Feb-05 16:33N 52°31' E 004°14'1110.8
2015-Feb-05 15:34N 52°28' E 004°31'4 3.7
2015-Feb-05 14:33N 52°28' E 004°37'3 3.4
2015-Feb-05 13:34N 52°26' E 004°42'2 1.8
2015-Feb-05 12:33N 52°25' E 004°45'0 0.0
2015-Feb-05 11:33N 52°25' E 004°45'0 0.0
2015-Feb-05 10:33N 52°25' E 004°45'0 0.0
2015-Feb-05 09:33N 52°25' E 004°45'0 0.0
2015-Feb-05 08:33N 52°25' E 004°45'0 0.0
2015-Feb-05 07:33N 52°25' E 004°45'0 0.0
2015-Feb-05 06:33N 52°25' E 004°45'0 0.0
2015-Feb-05 05:33N 52°25' E 004°45'0 0.0
2015-Feb-05 04:33N 52°25' E 004°45'0 0.0
2015-Feb-05 03:33N 52°25' E 004°45'0 0.0
2015-Feb-05 02:33N 52°25' E 004°45'0 0.0
2015-Feb-05 01:33N 52°25' E 004°45'0 0.0
2015-Feb-05 00:33N 52°25' E 004°45'0 0.0
2015-Feb-04 23:33N 52°25' E 004°45'0 0.0
2015-Feb-04 22:33N 52°25' E 004°45'0 0.0
2015-Feb-04 21:33N 52°25' E 004°45'0 0.0
2015-Feb-04 20:33N 52°25' E 004°45'0 0.0
2015-Feb-04 19:33N 52°25' E 004°45'0 0.0
2015-Feb-04 18:33N 52°25' E 004°45'0 0.0
2015-Feb-04 17:33N 52°25' E 004°45'0 0.0
2015-Feb-04 16:33N 52°25' E 004°45'0 0.0
2015-Feb-04 15:33N 52°25' E 004°45'0 0.0
2015-Feb-04 14:33N 52°25' E 004°45'0 0.0
2015-Feb-04 13:33N 52°25' E 004°45'0 0.0
2015-Feb-04 12:33N 52°25' E 004°45'0 0.0
2015-Feb-04 11:33N 52°25' E 004°45'0 0.0
2015-Feb-04 10:33N 52°25' E 004°45'0 0.0
2015-Feb-04 09:33N 52°25' E 004°45'0 0.0
2015-Feb-04 08:33N 52°25' E 004°45'0 0.0
2015-Feb-04 07:33N 52°25' E 004°45'0 0.0
2015-Feb-04 06:33N 52°25' E 004°45'0 0.0
2015-Feb-04 05:30N 52°25' E 004°45'0 0.0
2015-Feb-04 04:33N 52°25' E 004°45'0 0.0
2015-Feb-04 03:33N 52°25' E 004°45'0 0.0
2015-Feb-04 02:33N 52°25' E 004°45'0 0.0
2015-Feb-04 01:33N 52°25' E 004°45'0 0.0
2015-Feb-04 00:33N 52°25' E 004°45'0 0.0
2015-Feb-03 23:33N 52°25' E 004°45'0 0.0
2015-Feb-03 22:33N 52°25' E 004°45'0 0.0
2015-Feb-03 21:33N 52°25' E 004°45'0 0.0
2015-Feb-03 20:33N 52°25' E 004°45'0 0.0
2015-Feb-03 19:33N 52°25' E 004°45'0 0.0
2015-Feb-03 18:33N 52°25' E 004°45'0 0.0
2015-Feb-03 17:33N 52°25' E 004°45'0 0.0
2015-Feb-03 16:30N 52°25' E 004°45'0 0.0
2015-Feb-03 15:33N 52°25' E 004°45'0 0.0
2015-Feb-03 14:33N 52°25' E 004°45'0 0.0
2015-Feb-03 13:33N 52°25' E 004°45'0 0.0
2015-Feb-03 12:33N 52°25' E 004°45'0 0.0
2015-Feb-03 11:33N 52°25' E 004°45'0 0.0
2015-Feb-03 10:33N 52°25' E 004°45'0 0.0
2015-Feb-03 09:33N 52°25' E 004°45'0 0.0
2015-Feb-03 08:33N 52°25' E 004°45'0 0.0
2015-Feb-03 07:33N 52°25' E 004°45'0 0.0
2015-Feb-03 06:33N 52°25' E 004°45'0 0.0
2015-Feb-03 05:33N 52°25' E 004°45'0 0.0
2015-Feb-03 04:33N 52°25' E 004°45'0 0.0
2015-Feb-03 03:33N 52°25' E 004°45'0 0.0
2015-Feb-03 02:33N 52°25' E 004°45'0 0.0
2015-Feb-03 01:33N 52°25' E 004°45'0 0.0
2015-Feb-03 00:33N 52°25' E 004°45'0 0.0
2015-Feb-02 23:33N 52°25' E 004°45'0 0.0
2015-Feb-02 22:33N 52°25' E 004°45'0 0.0
2015-Feb-02 21:33N 52°25' E 004°45'0 0.0
2015-Feb-02 20:33N 52°25' E 004°45'0 0.0
2015-Feb-02 19:33N 52°25' E 004°45'0 0.0
2015-Feb-02 18:33N 52°25' E 004°45'0 0.0
2015-Feb-02 17:33N 52°25' E 004°45'0 0.0
2015-Feb-02 16:33N 52°25' E 004°45'0 0.0
2015-Feb-02 15:33N 52°25' E 004°45'0 0.0
2015-Feb-02 14:33N 52°25' E 004°45'3 2.9
2015-Feb-02 13:33N 52°27' E 004°41'3 2.9
2015-Feb-02 12:33N 52°28' E 004°36'3 3.2
2015-Feb-02 11:33N 52°28' E 004°31'9 8.5
2015-Feb-02 10:33N 52°30' E 004°18'7 7.4
2015-Feb-02 09:34N 52°28' E 004°06'2 2.2
2015-Feb-02 08:31N 52°26' E 004°03'0 0.0
2015-Feb-02 07:31N 52°26' E 004°03'0 0.1
2015-Feb-02 06:33N 52°26' E 004°03'0 0.1
2015-Feb-02 05:33N 52°26' E 004°04'0 0.0
2015-Feb-02 04:33N 52°26' E 004°04'0 0.1
2015-Feb-02 03:33N 52°26' E 004°04'4 3.8
2015-Feb-02 02:33N 52°28' E 004°10'7 6.9
2015-Feb-02 01:33N 52°27' E 003°58'1211.3
2015-Feb-02 00:32N 52°24' E 003°40'  
Track history (hours):
 
Tides and Currents Weather Stations Pressure Air Temp Water Temp Dewpoint Dewpoint Depression Visibility Wind Speed Wind Dir Waves Ship Positions

Marinicki

Last reported at 2015-Feb-11 20:25 UTC. Time now 2015-Mar-06 09:05 UTC.
Position N 36°47' W 030°47'.
Warning: this ship's position is 22 days out of date.

Length 218 m; draft 8.9 m.

Type: Ship. MMSI: 249650000.

Date/timePositionNaut miles runAvg speedWind from/ knotsBaromVisibWave heightAir tempDewpointWater temp
2015-Feb-11 20:25N 36°47' W 030°47'1112.4
2015-Feb-11 19:30N 36°50' W 030°33'4111.9
2015-Feb-11 16:05N 36°58' W 029°43'611.5
2015-Feb-11 15:32N 36°59' W 029°35'1111.4
2015-Feb-11 14:33N 37°02' W 029°22'1111.4
2015-Feb-11 13:33N 37°09' W 029°10'1111.4
2015-Feb-11 12:33N 37°15' W 028°58'1211.6
2015-Feb-11 11:33N 37°22' W 028°46'1211.6
2015-Feb-11 10:33N 37°28' W 028°35'1211.8
2015-Feb-11 09:34N 37°35' W 028°22'1211.7
2015-Feb-11 08:33N 37°42' W 028°11'1211.7
2015-Feb-11 07:33N 37°49' W 027°58'1211.6
2015-Feb-11 06:33N 37°55' W 027°46'1211.6
2015-Feb-11 05:33N 38°02' W 027°34'1111.4
2015-Feb-11 04:33N 38°09' W 027°22'1211.8
2015-Feb-11 03:33N 38°15' W 027°10'1211.8
2015-Feb-11 02:33N 38°22' W 026°58'1211.7
2015-Feb-11 01:33N 38°29' W 026°46'1211.8
2015-Feb-11 00:33N 38°36' W 026°33'1211.8
2015-Feb-10 23:33N 38°43' W 026°21'1212.0
2015-Feb-10 22:33N 38°49' W 026°09'1211.9
2015-Feb-10 21:33N 38°56' W 025°56'  
2015-Feb-06 14:31N 50°15' W 001°24'4012.3
2015-Feb-06 11:15N 50°25' W 000°23'710.1
2015-Feb-06 10:33N 50°27' W 000°12'1110.2
2015-Feb-06 09:28N 50°30' E 000°04'1010.8
2015-Feb-06 08:33N 50°33' E 000°20'1212.1
2015-Feb-06 07:33N 50°37' E 000°37'1413.6
2015-Feb-06 06:33N 50°45' E 000°55'1413.8
2015-Feb-06 05:33N 50°53' E 001°13'1313.2
2015-Feb-06 04:33N 51°02' E 001°28'1111.3
2015-Feb-06 03:33N 51°10' E 001°40'1010.2
2015-Feb-06 02:33N 51°18' E 001°50'1110.7
2015-Feb-06 01:33N 51°27' E 001°58'1211.6
2015-Feb-06 00:33N 51°36' E 002°11'1312.6
2015-Feb-05 23:33N 51°46' E 002°24'6612.4
2015-Feb-05 18:14N 52°31' E 003°42'811.8
2015-Feb-05 17:33N 52°31' E 003°55'1211.7
2015-Feb-05 16:33N 52°31' E 004°14'1110.8
2015-Feb-05 15:34N 52°28' E 004°31'4 3.7
2015-Feb-05 14:33N 52°28' E 004°37'3 3.4
2015-Feb-05 13:34N 52°26' E 004°42'2 1.8
2015-Feb-05 12:33N 52°25' E 004°45'0 0.0
2015-Feb-05 11:33N 52°25' E 004°45'0 0.0
2015-Feb-05 10:33N 52°25' E 004°45'0 0.0
2015-Feb-05 09:33N 52°25' E 004°45'0 0.0
2015-Feb-05 08:33N 52°25' E 004°45'0 0.0
2015-Feb-05 07:33N 52°25' E 004°45'0 0.0
2015-Feb-05 06:33N 52°25' E 004°45'0 0.0
2015-Feb-05 05:33N 52°25' E 004°45'0 0.0
2015-Feb-05 04:33N 52°25' E 004°45'0 0.0
2015-Feb-05 03:33N 52°25' E 004°45'0 0.0
2015-Feb-05 02:33N 52°25' E 004°45'0 0.0
2015-Feb-05 01:33N 52°25' E 004°45'0 0.0
2015-Feb-05 00:33N 52°25' E 004°45'0 0.0
2015-Feb-04 23:33N 52°25' E 004°45'0 0.0
2015-Feb-04 22:33N 52°25' E 004°45'0 0.0
2015-Feb-04 21:33N 52°25' E 004°45'0 0.0
2015-Feb-04 20:33N 52°25' E 004°45'0 0.0
2015-Feb-04 19:33N 52°25' E 004°45'0 0.0
2015-Feb-04 18:33N 52°25' E 004°45'0 0.0
2015-Feb-04 17:33N 52°25' E 004°45'0 0.0
2015-Feb-04 16:33N 52°25' E 004°45'0 0.0
2015-Feb-04 15:33N 52°25' E 004°45'0 0.0
2015-Feb-04 14:33N 52°25' E 004°45'0 0.0
2015-Feb-04 13:33N 52°25' E 004°45'0 0.0
2015-Feb-04 12:33N 52°25' E 004°45'0 0.0
2015-Feb-04 11:33N 52°25' E 004°45'0 0.0
2015-Feb-04 10:33N 52°25' E 004°45'0 0.0
2015-Feb-04 09:33N 52°25' E 004°45'0 0.0
2015-Feb-04 08:33N 52°25' E 004°45'0 0.0
2015-Feb-04 07:33N 52°25' E 004°45'0 0.0
2015-Feb-04 06:33N 52°25' E 004°45'0 0.0
2015-Feb-04 05:30N 52°25' E 004°45'0 0.0
2015-Feb-04 04:33N 52°25' E 004°45'0 0.0
2015-Feb-04 03:33N 52°25' E 004°45'0 0.0
2015-Feb-04 02:33N 52°25' E 004°45'0 0.0
2015-Feb-04 01:33N 52°25' E 004°45'0 0.0
2015-Feb-04 00:33N 52°25' E 004°45'0 0.0
2015-Feb-03 23:33N 52°25' E 004°45'0 0.0
2015-Feb-03 22:33N 52°25' E 004°45'0 0.0
2015-Feb-03 21:33N 52°25' E 004°45'0 0.0
2015-Feb-03 20:33N 52°25' E 004°45'0 0.0
2015-Feb-03 19:33N 52°25' E 004°45'0 0.0
2015-Feb-03 18:33N 52°25' E 004°45'0 0.0
2015-Feb-03 17:33N 52°25' E 004°45'0 0.0
2015-Feb-03 16:30N 52°25' E 004°45'0 0.0
2015-Feb-03 15:33N 52°25' E 004°45'0 0.0
2015-Feb-03 14:33N 52°25' E 004°45'0 0.0
2015-Feb-03 13:33N 52°25' E 004°45'0 0.0
2015-Feb-03 12:33N 52°25' E 004°45'0 0.0
2015-Feb-03 11:33N 52°25' E 004°45'0 0.0
2015-Feb-03 10:33N 52°25' E 004°45'0 0.0
2015-Feb-03 09:33N 52°25' E 004°45'0 0.0
2015-Feb-03 08:33N 52°25' E 004°45'0 0.0
2015-Feb-03 07:33N 52°25' E 004°45'0 0.0
2015-Feb-03 06:33N 52°25' E 004°45'0 0.0
2015-Feb-03 05:33N 52°25' E 004°45'0 0.0
2015-Feb-03 04:33N 52°25' E 004°45'0 0.0
2015-Feb-03 03:33N 52°25' E 004°45'0 0.0
2015-Feb-03 02:33N 52°25' E 004°45'0 0.0
2015-Feb-03 01:33N 52°25' E 004°45'0 0.0
2015-Feb-03 00:33N 52°25' E 004°45'0 0.0
2015-Feb-02 23:33N 52°25' E 004°45'0 0.0
2015-Feb-02 22:33N 52°25' E 004°45'0 0.0
2015-Feb-02 21:33N 52°25' E 004°45'0 0.0
2015-Feb-02 20:33N 52°25' E 004°45'0 0.0
2015-Feb-02 19:33N 52°25' E 004°45'0 0.0
2015-Feb-02 18:33N 52°25' E 004°45'0 0.0
2015-Feb-02 17:33N 52°25' E 004°45'0 0.0
2015-Feb-02 16:33N 52°25' E 004°45'0 0.0
2015-Feb-02 15:33N 52°25' E 004°45'0 0.0
2015-Feb-02 14:33N 52°25' E 004°45'3 2.9
2015-Feb-02 13:33N 52°27' E 004°41'3 2.9
2015-Feb-02 12:33N 52°28' E 004°36'3 3.2
2015-Feb-02 11:33N 52°28' E 004°31'9 8.5
2015-Feb-02 10:33N 52°30' E 004°18'7 7.4
2015-Feb-02 09:34N 52°28' E 004°06'2 2.2
2015-Feb-02 08:31N 52°26' E 004°03'0 0.0
2015-Feb-02 07:31N 52°26' E 004°03'0 0.1
2015-Feb-02 06:33N 52°26' E 004°03'0 0.1
2015-Feb-02 05:33N 52°26' E 004°04'0 0.0
2015-Feb-02 04:33N 52°26' E 004°04'0 0.1
2015-Feb-02 03:33N 52°26' E 004°04'4 3.8
2015-Feb-02 02:33N 52°28' E 004°10'7 6.9
2015-Feb-02 01:33N 52°27' E 003°58'1211.3
2015-Feb-02 00:32N 52°24' E 003°40'  

Dump ship's entire track history